Time,TemperatureF,DewpointF,PressureIn,WindDirection,WindDirectionDegrees,WindSpeedMPH,WindSpeedGustMPH,Humidity,HourlyPrecipIn,Conditions,Clouds,dailyrainin,SoftwareType,DateUTC
2013-07-02 00:16:00,67.1,67.0,29.92,ESE,121,0.0,4.0,98,0.27,,,0.01,weatherlink.com 1.10,2013-07-02 04:16:00,
2013-07-02 00:31:00,66.9,66.0,29.92,ENE,72,0.0,2.0,98,0.11,,,0.01,weatherlink.com 1.10,2013-07-02 04:31:00,
2013-07-02 00:46:00,66.6,66.0,29.92,SE,124,0.0,3.0,98,0.03,,,0.01,weatherlink.com 1.10,2013-07-02 04:46:00,
2013-07-02 01:01:00,66.4,66.0,29.93,WNW,291,0.0,0.0,98,0.01,,,0.01,weatherlink.com 1.10,2013-07-02 05:01:00,
2013-07-02 01:16:00,66.5,66.0,29.93,NNW,338,0.0,3.0,98,0.00,,,0.01,weatherlink.com 1.10,2013-07-02 05:16:00,
2013-07-02 01:32:00,66.4,66.0,29.93,NNW,337,0.0,2.0,98,0.00,,,0.01,weatherlink.com 1.10,2013-07-02 05:32:00,
2013-07-02 01:47:00,66.2,66.0,29.92,NW,318,0.0,2.0,98,0.00,,,0.01,weatherlink.com 1.10,2013-07-02 05:47:00,
2013-07-02 02:02:00,66.2,66.0,29.92,NW,309,1.0,2.0,99,0.00,,,0.01,weatherlink.com 1.10,2013-07-02 06:02:00,
2013-07-02 02:17:00,66.2,66.0,29.91,NNW,342,0.0,2.0,98,0.00,,,0.01,weatherlink.com 1.10,2013-07-02 06:17:00,
2013-07-02 02:32:00,66.0,66.0,29.91,NNW,343,1.0,2.0,99,0.00,,,0.01,weatherlink.com 1.10,2013-07-02 06:32:00,
2013-07-02 02:47:00,66.1,66.0,29.91,North,6,2.0,4.0,99,0.00,,,0.01,weatherlink.com 1.10,2013-07-02 06:47:00,
2013-07-02 03:02:00,66.0,66.0,29.91,North,9,0.0,3.0,99,0.00,,,0.01,weatherlink.com 1.10,2013-07-02 07:02:00,
2013-07-02 03:17:00,65.9,66.0,29.91,NW,322,0.0,2.0,99,0.00,,,0.01,weatherlink.com 1.10,2013-07-02 07:17:00,
2013-07-02 03:32:00,66.1,66.0,29.91,NNW,343,1.0,2.0,99,0.00,,,0.01,weatherlink.com 1.10,2013-07-02 07:32:00,
2013-07-02 03:47:00,66.3,66.0,29.91,NW,315,0.0,0.0,99,0.00,,,0.01,weatherlink.com 1.10,2013-07-02 07:47:00,
2013-07-02 04:02:00,66.5,66.0,29.92,SW,233,0.0,0.0,99,0.00,,,0.01,weatherlink.com 1.10,2013-07-02 08:02:00,
2013-07-02 04:17:00,66.6,66.0,29.92,WNW,301,0.0,2.0,99,0.00,,,0.01,weatherlink.com 1.10,2013-07-02 08:17:00,
2013-07-02 04:32:00,66.6,66.0,29.92,NNW,337,0.0,0.0,99,0.00,,,0.01,weatherlink.com 1.10,2013-07-02 08:32:00,
2013-07-02 04:47:00,66.7,66.0,29.92,NW,326,0.0,3.0,99,0.00,,,0.01,weatherlink.com 1.10,2013-07-02 08:47:00,
2013-07-02 05:02:00,66.8,67.0,29.92,NNW,334,0.0,2.0,99,0.00,,,0.01,weatherlink.com 1.10,2013-07-02 09:02:00,
2013-07-02 05:17:00,66.9,67.0,29.92,NNW,344,0.0,4.0,99,0.00,,,0.01,weatherlink.com 1.10,2013-07-02 09:17:00,
2013-07-02 05:32:00,66.9,67.0,29.93,NNW,337,0.0,1.0,99,0.00,,,0.01,weatherlink.com 1.10,2013-07-02 09:32:00,
2013-07-02 05:47:00,66.9,66.0,29.93,NW,323,1.0,1.0,98,0.00,,,0.01,weatherlink.com 1.10,2013-07-02 09:47:00,
2013-07-02 06:02:00,66.8,66.0,29.93,NW,323,0.0,0.0,98,0.00,,,0.01,weatherlink.com 1.10,2013-07-02 10:02:00,
2013-07-02 06:17:00,66.9,66.0,29.93,NW,323,0.0,0.0,98,0.00,,,0.01,weatherlink.com 1.10,2013-07-02 10:17:00,
2013-07-02 06:32:00,66.9,66.0,29.94,NW,323,0.0,0.0,98,0.00,,,0.01,weatherlink.com 1.10,2013-07-02 10:32:00,
2013-07-02 06:47:00,66.7,66.0,29.95,ESE,103,0.0,1.0,98,0.00,,,0.01,weatherlink.com 1.10,2013-07-02 10:47:00,
2013-07-02 07:02:00,66.6,66.0,29.95,SE,130,0.0,2.0,98,0.00,,,0.01,weatherlink.com 1.10,2013-07-02 11:02:00,
2013-07-02 07:17:00,66.5,66.0,29.95,SE,130,0.0,1.0,98,0.00,,,0.01,weatherlink.com 1.10,2013-07-02 11:17:00,
2013-07-02 07:32:00,66.5,66.0,29.95,SE,129,0.0,1.0,98,0.00,,,0.01,weatherlink.com 1.10,2013-07-02 11:32:00,
2013-07-02 07:47:00,66.6,66.0,29.96,ESE,104,0.0,1.0,98,0.00,,,0.01,weatherlink.com 1.10,2013-07-02 11:47:00,
2013-07-02 08:02:00,66.6,66.0,29.96,ESE,109,0.0,0.0,98,0.00,,,0.01,weatherlink.com 1.10,2013-07-02 12:02:00,
2013-07-02 08:17:00,66.7,66.0,29.97,ESE,121,0.0,1.0,98,0.00,,,0.01,weatherlink.com 1.10,2013-07-02 12:17:00,
2013-07-02 08:32:00,66.9,66.0,29.97,SE,130,0.0,0.0,98,0.00,,,0.01,weatherlink.com 1.10,2013-07-02 12:32:00,
2013-07-02 08:47:00,66.8,66.0,29.98,SE,129,0.0,2.0,97,0.00,,,0.01,weatherlink.com 1.10,2013-07-02 12:47:00,
2013-07-02 09:02:00,66.7,66.0,29.98,SE,132,0.0,2.0,97,0.00,,,0.01,weatherlink.com 1.10,2013-07-02 13:02:00,
2013-07-02 09:17:00,66.9,66.0,29.98,ESE,114,0.0,0.0,97,0.00,,,0.01,weatherlink.com 1.10,2013-07-02 13:17:00,
2013-07-02 09:32:00,67.3,67.0,29.98,ESE,114,0.0,0.0,97,0.00,,,0.01,weatherlink.com 1.10,2013-07-02 13:32:00,
2013-07-02 09:47:00,67.7,67.0,29.99,East,95,0.0,3.0,96,0.00,,,0.01,weatherlink.com 1.10,2013-07-02 13:47:00,
2013-07-02 10:02:00,68.2,67.0,29.99,SE,132,1.0,3.0,95,0.00,,,0.01,weatherlink.com 1.10,2013-07-02 14:02:00,
2013-07-02 10:17:00,68.4,67.0,29.99,SE,130,0.0,0.0,94,0.00,,,0.01,weatherlink.com 1.10,2013-07-02 14:17:00,
2013-07-02 10:32:00,68.6,67.0,29.99,SE,135,0.0,0.0,94,0.00,,,0.01,weatherlink.com 1.10,2013-07-02 14:32:00,
2013-07-02 10:47:00,68.9,67.0,29.99,ESE,106,0.0,1.0,93,0.00,,,0.01,weatherlink.com 1.10,2013-07-02 14:47:00,
2013-07-02 11:02:00,69.2,67.0,29.99,ESE,118,0.0,1.0,92,0.00,,,0.01,weatherlink.com 1.10,2013-07-02 15:02:00,
2013-07-02 11:17:00,69.6,67.0,30.00,SE,129,0.0,3.0,91,0.00,,,0.01,weatherlink.com 1.10,2013-07-02 15:17:00,
2013-07-02 11:32:00,71.7,68.0,30.00,NE,46,0.0,0.0,88,0.00,,,0.01,weatherlink.com 1.10,2013-07-02 15:32:00,
2013-07-02 11:47:00,72.7,68.0,30.00,ENE,74,0.0,0.0,84,0.00,,,0.01,weatherlink.com 1.10,2013-07-02 15:47:00,
2013-07-02 12:02:00,73.9,69.0,30.00,ESE,116,0.0,3.0,83,0.00,,,0.01,weatherlink.com 1.10,2013-07-02 16:02:00,
2013-07-02 12:18:00,75.3,69.0,29.99,NNW,328,0.0,3.0,81,0.00,,,0.01,weatherlink.com 1.10,2013-07-02 16:18:00,
2013-07-02 12:33:00,76.7,69.0,29.99,SE,126,1.0,4.0,77,0.00,,,0.01,weatherlink.com 1.10,2013-07-02 16:33:00,
2013-07-02 12:48:00,77.4,69.0,29.99,WSW,256,1.0,4.0,76,0.00,,,0.01,weatherlink.com 1.10,2013-07-02 16:48:00,
2013-07-02 13:03:00,79.4,70.0,29.99,SSW,203,1.0,4.0,73,0.00,,,0.01,weatherlink.com 1.10,2013-07-02 17:03:00,
2013-07-02 13:18:00,79.7,70.0,29.98,South,172,0.0,2.0,72,0.00,,,0.01,weatherlink.com 1.10,2013-07-02 17:18:00,
2013-07-02 13:33:00,80.2,70.0,29.98,SE,130,3.0,3.0,70,0.00,,,0.01,weatherlink.com 1.10,2013-07-02 17:33:00,
2013-07-02 13:48:00,80.7,70.0,29.99,ESE,103,3.0,5.0,70,0.00,,,0.01,weatherlink.com 1.10,2013-07-02 17:48:00,
2013-07-02 14:03:00,79.3,70.0,29.98,SE,126,0.0,6.0,73,0.00,,,0.01,weatherlink.com 1.10,2013-07-02 18:03:00,
2013-07-02 14:18:00,80.1,71.0,29.98,ESE,110,3.0,4.0,73,0.00,,,0.01,weatherlink.com 1.10,2013-07-02 18:18:00,
2013-07-02 14:33:00,80.9,70.0,29.98,SE,129,1.0,5.0,70,0.00,,,0.01,weatherlink.com 1.10,2013-07-02 18:33:00,
2013-07-02 14:48:00,81.7,71.0,29.98,SW,228,1.0,4.0,69,0.00,,,0.01,weatherlink.com 1.10,2013-07-02 18:48:00,
2013-07-02 15:03:00,82.1,70.0,29.98,South,178,2.0,4.0,67,0.00,,,0.01,weatherlink.com 1.10,2013-07-02 19:03:00,
2013-07-02 15:18:00,83.0,71.0,29.98,West,277,3.0,4.0,67,0.00,,,0.01,weatherlink.com 1.10,2013-07-02 19:18:00,
2013-07-02 15:33:00,83.2,70.0,29.98,West,270,0.0,5.0,65,0.00,,,0.01,weatherlink.com 1.10,2013-07-02 19:33:00,
2013-07-02 15:48:00,83.3,69.0,29.98,SSE,155,0.0,3.0,63,0.00,,,0.01,weatherlink.com 1.10,2013-07-02 19:48:00,
2013-07-02 16:03:00,83.7,70.0,29.97,West,259,1.0,2.0,63,0.00,,,0.01,weatherlink.com 1.10,2013-07-02 20:03:00,
2013-07-02 16:18:00,83.4,68.0,29.96,South,187,0.0,1.0,60,0.00,,,0.01,weatherlink.com 1.10,2013-07-02 20:18:00,
2013-07-02 16:33:00,84.1,70.0,29.96,ESE,122,0.0,2.0,62,0.00,,,0.01,weatherlink.com 1.10,2013-07-02 20:33:00,
2013-07-02 16:48:00,83.8,69.0,29.96,SW,232,1.0,3.0,61,0.00,,,0.01,weatherlink.com 1.10,2013-07-02 20:48:00,
2013-07-02 17:03:00,84.7,68.0,29.96,SE,137,0.0,4.0,58,0.00,,,0.01,weatherlink.com 1.10,2013-07-02 21:03:00,
2013-07-02 17:18:00,83.5,68.0,29.96,WSW,245,0.0,2.0,60,0.00,,,0.01,weatherlink.com 1.10,2013-07-02 21:18:00,
2013-07-02 17:33:00,85.2,68.0,29.96,WSW,242,0.0,5.0,56,0.00,,,0.01,weatherlink.com 1.10,2013-07-02 21:33:00,
2013-07-02 17:48:00,84.5,69.0,29.95,ESE,103,1.0,3.0,59,0.00,,,0.01,weatherlink.com 1.10,2013-07-02 21:48:00,
2013-07-02 18:03:00,83.6,68.0,29.95,SSE,158,0.0,3.0,59,0.00,,,0.01,weatherlink.com 1.10,2013-07-02 22:03:00,
2013-07-02 18:18:00,83.6,68.0,29.96,SSE,157,0.0,5.0,60,0.00,,,0.01,weatherlink.com 1.10,2013-07-02 22:18:00,
2013-07-02 18:33:00,83.6,69.0,29.96,SSW,208,0.0,4.0,62,0.00,,,0.01,weatherlink.com 1.10,2013-07-02 22:33:00,
2013-07-02 18:48:00,82.8,68.0,29.96,SSW,205,1.0,2.0,61,0.00,,,0.01,weatherlink.com 1.10,2013-07-02 22:48:00,
2013-07-02 19:03:00,83.4,69.0,29.96,SW,231,1.0,4.0,63,0.00,,,0.01,weatherlink.com 1.10,2013-07-02 23:03:00,
2013-07-02 19:18:00,83.7,68.0,29.95,SE,146,0.0,7.0,60,0.00,,,0.01,weatherlink.com 1.10,2013-07-02 23:18:00,
2013-07-02 19:33:00,84.1,70.0,29.95,South,181,1.0,4.0,62,0.00,,,0.01,weatherlink.com 1.10,2013-07-02 23:33:00,
2013-07-02 19:48:00,82.0,69.0,29.96,SE,146,2.0,5.0,65,0.00,,,0.01,weatherlink.com 1.10,2013-07-02 23:48:00,
2013-07-02 20:03:00,80.4,68.0,29.96,SE,132,0.0,3.0,66,0.00,,,0.01,weatherlink.com 1.10,2013-07-03 00:03:00,
2013-07-02 20:18:00,79.3,68.0,29.97,SE,137,0.0,2.0,68,0.00,,,0.01,weatherlink.com 1.10,2013-07-03 00:18:00,
2013-07-02 20:33:00,78.5,69.0,29.97,SSE,149,1.0,3.0,72,0.00,,,0.01,weatherlink.com 1.10,2013-07-03 00:33:00,
2013-07-02 20:48:00,77.6,69.0,29.97,SE,127,0.0,2.0,74,0.00,,,0.01,weatherlink.com 1.10,2013-07-03 00:48:00,
2013-07-02 21:03:00,77.1,69.0,29.98,SE,129,0.0,6.0,76,0.00,,,0.01,weatherlink.com 1.10,2013-07-03 01:03:00,
2013-07-02 21:18:00,75.4,69.0,29.98,SE,130,0.0,0.0,79,0.00,,,0.01,weatherlink.com 1.10,2013-07-03 01:18:00,
2013-07-02 21:33:00,73.8,68.0,29.98,SE,130,0.0,1.0,82,0.00,,,0.01,weatherlink.com 1.10,2013-07-03 01:33:00,
2013-07-02 22:03:00,72.2,68.0,29.99,NW,318,0.0,1.0,87,0.00,,,0.01,weatherlink.com 1.10,2013-07-03 02:03:00,
2013-07-02 22:18:00,71.6,68.0,30.00,NW,318,0.0,0.0,88,0.00,,,0.01,weatherlink.com 1.10,2013-07-03 02:18:00,
2013-07-02 22:34:00,71.2,68.0,30.00,NNW,346,0.0,0.0,90,0.00,,,0.01,weatherlink.com 1.10,2013-07-03 02:34:00,
2013-07-02 22:49:00,71.0,68.0,30.00,NNW,346,0.0,0.0,90,0.00,,,0.01,weatherlink.com 1.10,2013-07-03 02:49:00,
2013-07-02 23:04:00,70.9,68.0,30.01,NNW,346,0.0,0.0,90,0.00,,,0.01,weatherlink.com 1.10,2013-07-03 03:04:00,
2013-07-02 23:19:00,71.0,68.0,30.01,NNW,346,0.0,0.0,90,0.00,,,0.01,weatherlink.com 1.10,2013-07-03 03:19:00,
2013-07-02 23:34:00,70.8,68.0,30.01,NNW,345,0.0,0.0,91,0.00,,,0.01,weatherlink.com 1.10,2013-07-03 03:34:00,